createdAt,value
2023-08-18T00:00:24.660Z,97718.00
2023-08-18T00:02:52.756Z,97719.44
2023-08-18T00:05:22.174Z,97709.69
2023-08-18T00:07:50.130Z,97707.28
2023-08-18T00:10:18.639Z,97709.84
2023-08-18T00:12:46.590Z,97716.38
2023-08-18T00:15:14.518Z,97708.91
2023-08-18T00:17:42.864Z,97718.94
2023-08-18T00:20:12.142Z,97727.72
2023-08-18T00:22:41.544Z,97724.78
2023-08-18T00:25:10.847Z,97725.59
2023-08-18T00:27:38.823Z,97722.84
2023-08-18T00:30:08.665Z,97718.63
2023-08-18T00:32:37.026Z,97720.44
2023-08-18T00:35:05.696Z,97722.69
2023-08-18T00:37:34.146Z,97724.00
2023-08-18T00:40:04.076Z,97724.66
2023-08-18T00:42:32.029Z,97717.53
2023-08-18T00:44:59.963Z,97721.09
2023-08-18T00:47:28.376Z,97715.38
2023-08-18T00:49:58.961Z,97715.06
2023-08-18T00:52:27.831Z,97718.94
2023-08-18T00:54:55.868Z,97725.28
2023-08-18T00:57:25.392Z,97728.34
2023-08-18T00:59:54.207Z,97718.97
2023-08-18T01:02:22.185Z,97714.72
2023-08-18T01:04:50.676Z,97715.38
2023-08-18T01:07:18.666Z,97718.97
2023-08-18T01:09:47.911Z,97716.03
2023-08-18T01:12:31.413Z,97718.97
2023-08-18T01:15:11.509Z,97723.53
2023-08-18T01:17:47.651Z,97720.94
2023-08-18T01:20:16.360Z,97708.09
2023-08-18T01:22:50.375Z,97714.25
2023-08-18T01:25:19.756Z,97708.56
2023-08-18T01:27:47.725Z,97712.16
2023-08-18T01:30:17.281Z,97712.16
2023-08-18T01:32:55.008Z,97710.50
2023-08-18T01:35:28.033Z,97706.47
2023-08-18T01:37:58.248Z,97712.78
2023-08-18T01:40:31.590Z,97694.59
2023-08-18T01:43:00.614Z,97698.81
2023-08-18T01:45:29.082Z,97696.06
2023-08-18T01:47:57.040Z,97709.88
2023-08-18T01:50:25.273Z,97698.50
2023-08-18T01:52:53.275Z,97708.91
2023-08-18T01:55:21.231Z,97708.91
2023-08-18T01:57:50.750Z,97703.88
2023-08-18T02:00:20.885Z,97700.28
2023-08-18T02:02:49.536Z,97701.56
2023-08-18T02:05:17.890Z,97692.78
2023-08-18T02:07:45.861Z,97701.06
2023-08-18T02:10:14.256Z,97701.06
2023-08-18T02:12:42.302Z,97698.31
2023-08-18T02:15:12.333Z,97693.75
2023-08-18T02:17:40.451Z,97700.94
2023-08-18T02:20:09.912Z,97696.53
2023-08-18T02:22:37.871Z,97702.53
2023-08-18T02:25:07.171Z,97710.16
2023-08-18T02:27:35.120Z,97708.56
2023-08-18T02:30:04.661Z,97715.34
2023-08-18T02:32:33.951Z,97717.81
2023-08-18T02:35:02.806Z,97708.25
2023-08-18T02:37:30.980Z,97705.28
2023-08-18T02:39:59.547Z,97711.44
2023-08-18T02:42:27.543Z,97707.22
2023-08-18T02:44:55.508Z,97714.19
2023-08-18T02:47:23.468Z,97720.81
2023-08-18T02:49:52.830Z,97714.63
2023-08-18T02:52:21.128Z,97716.53
2023-08-18T02:54:49.068Z,97713.13
2023-08-18T02:57:17.024Z,97710.38
2023-08-18T02:59:44.993Z,97715.91
2023-08-18T03:02:12.954Z,97706.50
2023-08-18T03:04:40.935Z,97710.06
2023-08-18T03:07:10.319Z,97715.56
2023-08-18T03:09:38.273Z,97718.09
2023-08-18T03:12:06.977Z,97715.31
2023-08-18T03:14:34.965Z,97715.81
2023-08-18T03:17:02.905Z,97712.53
2023-08-18T03:19:34.181Z,97718.56
2023-08-18T03:22:02.187Z,97717.41
2023-08-18T03:24:31.453Z,97720.06
2023-08-18T03:26:59.396Z,97724.47
2023-08-18T03:29:27.392Z,97713.94
2023-08-18T03:31:55.328Z,97712.59
2023-08-18T03:34:23.311Z,97713.53
2023-08-18T03:36:51.296Z,97716.75
2023-08-18T03:39:19.756Z,97713.84
2023-08-18T03:41:49.064Z,97716.44
2023-08-18T03:44:17.049Z,97708.63
2023-08-18T03:46:44.985Z,97717.38
2023-08-18T03:49:13.917Z,97714.00
2023-08-18T03:51:41.966Z,97716.44
2023-08-18T03:54:09.958Z,97707.34
2023-08-18T03:56:37.919Z,97704.75
2023-08-18T03:59:07.204Z,97712.38
2023-08-18T04:01:35.220Z,97705.09
2023-08-18T04:04:03.557Z,97701.88
2023-08-18T04:06:31.536Z,97707.38
2023-08-18T04:09:09.683Z,97697.69
2023-08-18T04:11:37.997Z,97702.34
2023-08-18T04:14:07.329Z,97702.84
2023-08-18T04:16:35.371Z,97711.94
2023-08-18T04:19:04.673Z,97702.50
2023-08-18T04:21:32.975Z,97707.38
2023-08-18T04:24:01.282Z,97698.47
2023-08-18T04:26:30.426Z,97709.19
2023-08-18T04:28:58.374Z,97711.19
2023-08-18T04:31:28.036Z,97710.22
2023-08-18T04:33:56.816Z,97716.91
2023-08-18T04:36:24.827Z,97712.03
2023-08-18T04:38:52.800Z,97709.56
2023-08-18T04:41:20.742Z,97715.41
2023-08-18T04:43:50.993Z,97711.19
2023-08-18T04:46:18.960Z,97717.69
2023-08-18T04:48:48.848Z,97716.56
2023-08-18T04:51:16.805Z,97723.91
2023-08-18T04:53:44.845Z,97726.97
2023-08-18T04:56:12.860Z,97725.69
2023-08-18T04:58:40.814Z,97727.34
2023-08-18T05:01:09.012Z,97724.41
2023-08-18T05:03:37.092Z,97729.94
2023-08-18T05:06:10.057Z,97733.22
2023-08-18T05:08:39.028Z,97727.84
2023-08-18T05:11:08.770Z,97720.53
2023-08-18T05:13:37.944Z,97720.22
2023-08-18T05:16:06.457Z,97716.66
2023-08-18T05:18:35.092Z,97717.97
2023-08-18T05:21:04.131Z,97707.72
2023-08-18T05:23:33.643Z,97719.91
2023-08-18T05:26:01.812Z,97707.09
2023-08-18T05:28:29.383Z,97714.09
2023-08-18T05:30:57.738Z,97706.63
2023-08-18T05:33:25.991Z,97709.22
2023-08-18T05:35:53.992Z,97707.59
2023-08-18T05:38:21.970Z,97715.22
2023-08-18T05:40:52.034Z,97713.28
2023-08-18T05:43:20.553Z,97704.19
2023-08-18T05:45:49.688Z,97708.91
2023-08-18T05:48:17.819Z,97701.59
2023-08-18T05:50:45.794Z,97710.81
2023-08-18T05:53:13.876Z,97709.03
2023-08-18T05:55:41.843Z,97717.63
2023-08-18T05:58:11.131Z,97719.22
2023-08-18T06:00:39.089Z,97720.53
2023-08-18T06:03:07.300Z,97719.06
2023-08-18T06:05:36.044Z,97728.78
2023-08-18T06:08:04.378Z,97729.25
2023-08-18T06:10:32.379Z,97730.59
2023-08-18T06:13:00.306Z,97728.31
2023-08-18T06:15:30.268Z,97726.44
2023-08-18T06:17:58.309Z,97729.66
2023-08-18T06:20:26.334Z,97734.69
2023-08-18T06:22:54.279Z,97734.66
2023-08-18T06:25:22.380Z,97735.22
2023-08-18T06:27:51.100Z,97737.81
2023-08-18T06:30:19.103Z,97730.41
2023-08-18T06:32:48.699Z,97735.41
2023-08-18T06:35:19.216Z,97734.03
2023-08-18T06:37:47.157Z,97735.91
2023-08-18T06:40:15.231Z,97730.25
2023-08-18T06:42:43.323Z,97733.16
2023-08-18T06:45:11.979Z,97721.50
2023-08-18T06:47:39.985Z,97727.63
2023-08-18T06:50:11.001Z,97729.53
2023-08-18T06:52:41.426Z,97731.91
2023-08-18T06:55:14.817Z,97733.44
2023-08-18T06:57:46.603Z,97726.19
2023-08-18T07:00:17.030Z,97730.31
2023-08-18T07:02:46.242Z,97732.50
2023-08-18T07:05:15.791Z,97723.41
2023-08-18T07:07:43.770Z,97724.72
2023-08-18T07:10:11.868Z,97733.56
2023-08-18T07:12:39.788Z,97732.72
2023-08-18T07:15:08.419Z,97727.84
2023-08-18T07:17:36.394Z,97736.22
2023-08-18T07:20:07.177Z,97735.09
2023-08-18T07:22:36.470Z,97731.03
2023-08-18T07:25:05.395Z,97727.28
2023-08-18T07:27:33.648Z,97729.41
2023-08-18T07:30:01.650Z,97733.94
2023-08-18T07:32:29.820Z,97731.66
2023-08-18T07:34:58.007Z,97721.94
2023-08-18T07:37:51.753Z,97730.88
2023-08-18T07:40:15.731Z,97728.31
2023-08-18T07:42:45.179Z,97726.34
2023-08-18T07:45:13.715Z,97724.59
2023-08-18T07:47:43.898Z,97723.44
2023-08-18T07:50:13.041Z,97728.22
2023-08-18T07:52:42.631Z,97727.06
2023-08-18T07:55:11.076Z,97733.38
2023-08-18T07:57:40.441Z,97738.47
2023-08-18T08:00:14.799Z,97736.09
2023-08-18T08:02:42.764Z,97729.75
2023-08-18T08:05:11.666Z,97735.81
2023-08-18T08:07:39.613Z,97732.44
2023-08-18T08:10:08.740Z,97731.03
2023-08-18T08:12:39.177Z,97731.28
2023-08-18T08:15:12.035Z,97731.13
2023-08-18T08:17:40.768Z,97732.91
2023-08-18T08:20:15.412Z,97735.31
2023-08-18T08:22:44.481Z,97739.16
2023-08-18T08:25:13.759Z,97732.69
2023-08-18T08:27:42.143Z,97736.94
2023-08-18T08:30:30.196Z,97731.25
2023-08-18T08:33:05.003Z,97742.34
2023-08-18T08:35:33.528Z,97739.47
2023-08-18T08:38:01.760Z,97734.59
2023-08-18T08:40:29.775Z,97741.44
2023-08-18T08:45:31.632Z,97741.72
2023-08-18T08:48:06.683Z,97740.41
2023-08-18T08:50:40.749Z,97731.59
2023-08-18T08:53:12.970Z,97728.72
2023-08-18T08:55:44.288Z,97732.50
2023-08-18T08:58:14.571Z,97731.94
2023-08-18T09:00:44.608Z,97734.63
2023-08-18T09:03:14.034Z,97732.16
2023-08-18T09:05:42.147Z,97730.06
2023-08-18T09:08:10.135Z,97722.84
2023-08-18T09:10:40.666Z,97730.75
2023-08-18T09:13:09.495Z,97730.16
2023-08-18T09:15:37.665Z,97729.00
2023-08-18T09:18:08.287Z,97729.44
2023-08-18T09:20:37.212Z,97725.69
2023-08-18T09:23:06.363Z,97731.94
2023-08-18T09:25:36.423Z,97727.53
2023-08-18T09:28:08.584Z,97719.69
2023-08-18T09:30:43.508Z,97724.47
2023-08-18T09:33:12.923Z,97715.81
2023-08-18T09:35:40.952Z,97715.50
2023-08-18T09:38:14.888Z,97709.63
2023-08-18T09:40:42.908Z,97707.13
2023-08-18T09:43:10.913Z,97711.88
2023-08-18T09:45:41.562Z,97700.00
2023-08-18T09:48:15.108Z,97699.97
2023-08-18T09:50:48.174Z,97702.41
2023-08-18T09:53:18.843Z,97701.56
2023-08-18T09:55:50.279Z,97699.63
2023-08-18T09:58:32.197Z,97689.63
2023-08-18T10:01:00.187Z,97691.06
2023-08-18T10:03:32.789Z,97698.19
2023-08-18T10:06:02.342Z,97693.38
2023-08-18T10:08:32.238Z,97698.31
2023-08-18T10:11:01.521Z,97694.84
2023-08-18T10:13:32.547Z,97688.75
2023-08-18T10:16:02.049Z,97688.53
2023-08-18T10:18:32.347Z,97685.16
2023-08-18T10:21:01.475Z,97678.94
2023-08-18T10:23:32.639Z,97677.69
2023-08-18T10:26:00.700Z,97674.44
2023-08-18T10:28:31.631Z,97675.09
2023-08-18T10:31:02.063Z,97676.69
2023-08-18T10:33:34.247Z,97677.41
2023-08-18T10:36:05.793Z,97676.34
2023-08-18T10:38:40.283Z,97676.22
2023-08-18T10:41:08.335Z,97668.13
2023-08-18T10:43:46.790Z,97675.22
2023-08-18T10:46:16.195Z,97673.13
2023-08-18T10:48:46.731Z,97666.44
2023-08-18T10:51:14.672Z,97665.59
2023-08-18T10:53:44.043Z,97672.69
2023-08-18T10:56:11.982Z,97653.78
2023-08-18T10:58:40.362Z,97659.72
2023-08-18T11:01:10.318Z,97656.59
2023-08-18T11:03:38.646Z,97652.34
2023-08-18T11:06:08.316Z,97646.84
2023-08-18T11:08:38.703Z,97640.94
2023-08-18T11:11:06.880Z,97648.34
2023-08-18T11:13:34.877Z,97646.25
2023-08-18T11:16:03.280Z,97644.66
2023-08-18T11:18:31.379Z,97631.47
2023-08-18T11:20:59.856Z,97634.19
2023-08-18T11:23:30.114Z,97635.44
2023-08-18T11:25:58.956Z,97631.88
2023-08-18T11:28:27.344Z,97634.06
2023-08-18T11:30:57.423Z,97631.72
2023-08-18T11:33:26.755Z,97642.50
2023-08-18T11:35:56.280Z,97635.09
2023-08-18T11:38:24.319Z,97634.56
2023-08-18T11:40:53.994Z,97631.16
2023-08-18T11:43:22.951Z,97631.47
2023-08-18T11:45:51.067Z,97626.25
2023-08-18T11:48:21.254Z,97629.06
2023-08-18T11:50:49.254Z,97631.81
2023-08-18T11:53:26.484Z,97631.66
2023-08-18T11:55:58.550Z,97625.22
2023-08-18T11:58:26.817Z,97629.53
2023-08-18T12:00:54.953Z,97624.09
2023-08-18T12:03:25.777Z,97619.16
2023-08-18T12:05:56.616Z,97625.16
2023-08-18T12:08:25.889Z,97616.16
2023-08-18T12:10:55.745Z,97607.94
2023-08-18T12:13:24.581Z,97606.03
2023-08-18T12:15:52.727Z,97609.78
2023-08-18T12:18:20.765Z,97607.78
2023-08-18T12:20:48.730Z,97608.69
2023-08-18T12:23:16.785Z,97606.91
2023-08-18T12:25:44.817Z,97602.72
2023-08-18T12:28:14.127Z,97597.00
2023-08-18T12:30:42.124Z,97589.97
2023-08-18T12:33:10.150Z,97590.38
2023-08-18T12:35:38.188Z,97600.22
2023-08-18T12:38:06.734Z,97600.84
2023-08-18T12:40:34.692Z,97597.66
2023-08-18T12:43:03.703Z,97591.72
2023-08-18T12:45:32.997Z,97586.41
2023-08-18T12:48:00.970Z,97595.16
2023-08-18T12:50:28.968Z,97591.53
2023-08-18T12:52:56.940Z,97596.03
2023-08-18T12:55:24.888Z,97584.41
2023-08-18T12:57:52.884Z,97591.47
2023-08-18T13:00:20.973Z,97593.59
2023-08-18T13:02:50.258Z,97582.41
2023-08-18T13:05:18.443Z,97580.09
2023-08-18T13:07:48.336Z,97585.69
2023-08-18T13:10:16.531Z,97583.97
2023-08-18T13:12:44.501Z,97577.69
2023-08-18T13:15:12.829Z,97573.28
2023-08-18T13:17:41.184Z,97571.41
2023-08-18T13:20:12.382Z,97564.28
2023-08-18T13:22:41.301Z,97566.91
2023-08-18T13:25:14.830Z,97561.13
2023-08-18T13:27:44.819Z,97565.31
2023-08-18T13:30:14.128Z,97560.25
2023-08-18T13:32:42.087Z,97560.88
2023-08-18T13:35:11.939Z,97556.66
2023-08-18T13:37:40.307Z,97554.00
2023-08-18T13:40:10.025Z,97554.06
2023-08-18T13:42:38.094Z,97547.03
2023-08-18T13:45:07.075Z,97550.63
2023-08-18T13:47:35.037Z,97548.22
2023-08-18T13:50:03.049Z,97544.72
2023-08-18T13:52:32.734Z,97550.00
2023-08-18T13:55:01.366Z,97542.59
2023-08-18T13:57:29.373Z,97543.16
2023-08-18T13:59:57.386Z,97534.69
2023-08-18T14:02:25.423Z,97535.69
2023-08-18T14:04:53.728Z,97536.38
2023-08-18T14:07:21.713Z,97535.63
2023-08-18T14:09:51.042Z,97536.69
2023-08-18T14:12:19.010Z,97531.69
2023-08-18T14:14:46.958Z,97528.50
2023-08-18T14:17:36.523Z,97532.97
2023-08-18T14:20:12.944Z,97529.44
2023-08-18T14:22:41.484Z,97525.44
2023-08-18T14:25:12.171Z,97524.63
2023-08-18T14:27:40.980Z,97527.53
2023-08-18T14:30:10.282Z,97525.63
2023-08-18T14:32:38.779Z,97521.59
2023-08-18T14:35:09.086Z,97532.41
2023-08-18T14:37:38.335Z,97523.78
2023-08-18T14:40:12.981Z,97524.97
2023-08-18T14:42:41.284Z,97523.81
2023-08-18T14:45:09.997Z,97518.69
2023-08-18T14:47:38.107Z,97514.00
2023-08-18T14:50:07.705Z,97506.78
2023-08-18T14:52:36.230Z,97504.94
2023-08-18T14:55:05.334Z,97510.50
2023-08-18T14:57:36.468Z,97506.50
2023-08-18T15:00:09.890Z,97504.69
2023-08-18T15:02:38.547Z,97515.13
2023-08-18T15:05:08.435Z,97511.44
2023-08-18T15:07:36.937Z,97512.56
2023-08-18T15:10:05.742Z,97504.38
2023-08-18T15:12:35.126Z,97506.78
2023-08-18T15:15:05.442Z,97505.81
2023-08-18T15:17:33.728Z,97512.34
2023-08-18T15:20:01.978Z,97505.44
2023-08-18T15:22:29.965Z,97502.22
2023-08-18T15:24:58.176Z,97505.63
2023-08-18T15:27:26.216Z,97505.22
2023-08-18T15:29:55.536Z,97514.31
2023-08-18T15:32:23.878Z,97511.84
2023-08-18T15:34:51.853Z,97510.22
2023-08-18T15:37:19.831Z,97508.13
2023-08-18T15:39:47.789Z,97510.78
2023-08-18T15:42:15.756Z,97508.59
2023-08-18T15:44:43.772Z,97507.13
2023-08-18T15:47:13.150Z,97507.75
2023-08-18T15:49:41.208Z,97508.25
2023-08-18T15:52:09.172Z,97506.66
2023-08-18T15:54:37.151Z,97506.81
2023-08-18T15:57:05.321Z,97494.63
2023-08-18T15:59:34.004Z,97497.19
2023-08-18T16:02:02.016Z,97491.56
2023-08-18T16:04:31.383Z,97490.09
2023-08-18T16:06:59.352Z,97485.47
2023-08-18T16:09:27.340Z,97490.66
2023-08-18T16:11:55.362Z,97482.59
2023-08-18T16:15:05.264Z,97484.09
2023-08-18T16:17:13.003Z,97479.28
2023-08-18T16:19:42.385Z,97488.75
2023-08-18T16:22:10.478Z,97474.97
2023-08-18T16:24:38.550Z,97482.34
2023-08-18T16:27:06.902Z,97479.75
2023-08-18T16:29:35.005Z,97477.69
2023-08-18T16:32:04.831Z,97471.19
2023-08-18T16:34:32.846Z,97473.41
2023-08-18T16:37:02.151Z,97482.00
2023-08-18T16:39:30.265Z,97481.34
2023-08-18T16:41:58.280Z,97480.19
2023-08-18T16:44:26.318Z,97482.75
2023-08-18T16:46:54.540Z,97485.75
2023-08-18T16:49:22.605Z,97485.06
2023-08-18T16:51:50.578Z,97482.56
2023-08-18T16:54:19.920Z,97479.22
2023-08-18T16:56:48.292Z,97490.50
2023-08-18T16:59:17.018Z,97481.84
2023-08-18T17:01:45.371Z,97478.28
2023-08-18T17:04:13.997Z,97486.91
2023-08-18T17:06:42.522Z,97491.03
2023-08-18T17:09:11.202Z,97486.91
2023-08-18T17:11:41.780Z,97485.41
2023-08-18T17:14:09.767Z,97487.13
2023-08-18T17:16:37.826Z,97489.88
2023-08-18T17:19:06.329Z,97478.63
2023-08-18T17:21:38.378Z,97481.38
2023-08-18T17:24:07.205Z,97477.19
2023-08-18T17:26:35.249Z,97465.72
2023-08-18T17:29:04.732Z,97470.06
2023-08-18T17:31:34.167Z,97470.41
2023-08-18T17:34:02.369Z,97472.09
2023-08-18T17:36:30.379Z,97480.56
2023-08-18T17:38:58.372Z,97480.28
2023-08-18T17:41:26.360Z,97481.63
2023-08-18T17:43:54.336Z,97482.50
2023-08-18T17:46:23.745Z,97488.06
2023-08-18T17:48:51.787Z,97485.88
2023-08-18T17:51:19.780Z,97482.69
2023-08-18T17:53:47.739Z,97478.09
2023-08-18T17:56:15.732Z,97483.19
2023-08-18T17:58:43.714Z,97482.84
2023-08-18T18:01:11.678Z,97485.13
2023-08-18T18:03:41.438Z,97485.78
2023-08-18T18:06:11.700Z,97479.34
2023-08-18T18:08:39.708Z,97488.50
2023-08-18T18:11:07.706Z,97492.38
2023-08-18T18:13:35.708Z,97501.75
2023-08-18T18:16:04.046Z,97501.06
2023-08-18T18:18:32.163Z,97503.31
2023-08-18T18:21:01.486Z,97506.38
2023-08-18T18:23:29.488Z,97510.69
2023-08-18T18:25:57.504Z,97517.28
2023-08-18T18:28:25.574Z,97509.47
2023-08-18T18:30:54.006Z,97510.34
2023-08-18T18:33:22.164Z,97512.19
2023-08-18T18:35:50.141Z,97510.91
2023-08-18T18:38:19.462Z,97524.72
2023-08-18T18:40:47.487Z,97525.19
2023-08-18T18:43:15.458Z,97516.56
2023-08-18T18:45:43.459Z,97537.91
2023-08-18T18:48:11.487Z,97534.09
2023-08-18T18:50:39.571Z,97547.66
2023-08-18T18:53:07.557Z,97540.59
2023-08-18T18:55:36.880Z,97542.59
2023-08-18T18:58:05.452Z,97544.00
2023-08-18T19:00:34.739Z,97547.44
2023-08-18T19:03:03.163Z,97550.50
2023-08-18T19:05:31.200Z,97547.28
2023-08-18T19:07:59.194Z,97550.50
2023-08-18T19:10:27.162Z,97550.09
2023-08-18T19:12:56.468Z,97549.28
2023-08-18T19:15:24.527Z,97555.72
2023-08-18T19:17:52.525Z,97552.47
2023-08-18T19:20:28.360Z,97558.72
2023-08-18T19:22:57.218Z,97562.75
2023-08-18T19:25:27.667Z,97560.13
2023-08-18T19:27:58.901Z,97561.28
2023-08-18T19:30:26.914Z,97559.66
2023-08-18T19:32:54.959Z,97566.69
2023-08-18T19:35:23.052Z,97565.28
2023-08-18T19:37:51.064Z,97565.44
2023-08-18T19:40:19.729Z,97562.78
2023-08-18T19:42:47.994Z,97571.22
2023-08-18T19:45:17.454Z,97563.75
2023-08-18T19:47:45.441Z,97580.88
2023-08-18T19:50:13.483Z,97578.03
2023-08-18T19:52:41.516Z,97573.19
2023-08-18T19:55:10.455Z,97579.41
2023-08-18T19:57:38.453Z,97577.00
2023-08-18T20:00:10.496Z,97576.81
2023-08-18T20:02:40.082Z,97575.56
2023-08-18T20:05:09.867Z,97578.75
2023-08-18T20:07:38.082Z,97574.13
2023-08-18T20:10:07.960Z,97570.03
2023-08-18T20:12:36.086Z,97573.78
2023-08-18T20:15:06.159Z,97574.56
2023-08-18T20:17:35.148Z,97572.72
2023-08-18T20:20:07.234Z,97579.88
2023-08-18T20:22:36.399Z,97585.47
2023-08-18T20:25:04.912Z,97580.38
2023-08-18T20:27:32.982Z,97590.59
2023-08-18T20:30:02.672Z,97588.78
2023-08-18T20:32:31.419Z,97597.25
2023-08-18T20:35:00.245Z,97591.63
2023-08-18T20:37:29.687Z,97584.41
2023-08-18T20:39:57.700Z,97595.28
2023-08-18T20:42:26.376Z,97591.97
2023-08-18T20:44:54.504Z,97596.34
2023-08-18T20:47:22.501Z,97597.72
2023-08-18T20:49:50.825Z,97601.47
2023-08-18T20:52:18.845Z,97599.59
2023-08-18T20:54:48.208Z,97603.56
2023-08-18T20:57:16.229Z,97594.84
2023-08-18T20:59:44.245Z,97598.47
2023-08-18T21:02:12.250Z,97590.88
2023-08-18T21:04:40.237Z,97589.50
2023-08-18T21:07:08.243Z,97596.16
2023-08-18T21:09:36.266Z,97593.53
2023-08-18T21:12:06.350Z,97595.72
2023-08-18T21:14:34.356Z,97597.72
2023-08-18T21:17:02.377Z,97593.69
2023-08-18T21:19:30.343Z,97600.28
2023-08-18T21:21:58.308Z,97598.19
2023-08-18T21:24:26.444Z,97599.56
2023-08-18T21:26:54.578Z,97599.56
2023-08-18T21:29:24.084Z,97594.31
2023-08-18T21:31:52.354Z,97599.38
2023-08-18T21:34:20.824Z,97617.28
2023-08-18T21:36:49.070Z,97607.69
2023-08-18T21:39:17.159Z,97610.31
2023-08-18T21:41:45.210Z,97603.00
2023-08-18T21:44:13.199Z,97605.97
2023-08-18T21:46:42.679Z,97610.34
2023-08-18T21:49:10.792Z,97604.13
2023-08-18T21:51:40.896Z,97604.00
2023-08-18T21:54:08.954Z,97602.66
2023-08-18T21:56:36.957Z,97607.19
2023-08-18T21:59:05.382Z,97606.28
2023-08-18T22:01:34.333Z,97602.25
2023-08-18T22:04:03.907Z,97603.66
2023-08-18T22:06:31.904Z,97599.91
2023-08-18T22:08:59.886Z,97597.34
2023-08-18T22:11:28.371Z,97597.63
2023-08-18T22:13:56.352Z,97597.44
2023-08-18T22:16:25.382Z,97601.88
2023-08-18T22:18:53.426Z,97600.84
2023-08-18T22:21:22.776Z,97597.06
2023-08-18T22:23:50.797Z,97594.28
2023-08-18T22:26:19.325Z,97587.22
2023-08-18T22:28:47.435Z,97590.50
2023-08-18T22:31:15.795Z,97584.28
2023-08-18T22:33:43.896Z,97595.72
2023-08-18T22:36:12.010Z,97596.88
2023-08-18T22:38:41.717Z,97595.63
2023-08-18T22:41:09.746Z,97591.78
2023-08-18T22:43:39.206Z,97588.53
2023-08-18T22:46:07.239Z,97594.91
2023-08-18T22:48:35.722Z,97592.31
2023-08-18T22:51:03.751Z,97600.50
2023-08-18T22:53:31.736Z,97603.13
2023-08-18T22:56:02.807Z,97599.72
2023-08-18T22:58:31.349Z,97602.94
2023-08-18T23:00:59.338Z,97610.97
2023-08-18T23:03:27.642Z,97604.50
2023-08-18T23:05:55.653Z,97607.47
2023-08-18T23:08:24.235Z,97611.88
2023-08-18T23:10:52.212Z,97599.81
2023-08-18T23:13:21.525Z,97607.19
2023-08-18T23:15:51.488Z,97607.09
2023-08-18T23:18:19.511Z,97605.00
2023-08-18T23:20:47.540Z,97604.94
2023-08-18T23:23:15.529Z,97600.06
2023-08-18T23:25:44.058Z,97604.22
2023-08-18T23:28:12.073Z,97605.38
2023-08-18T23:30:41.419Z,97601.16
2023-08-18T23:33:09.398Z,97606.75
2023-08-18T23:35:37.360Z,97603.66
2023-08-18T23:38:05.549Z,97606.47
2023-08-18T23:40:33.599Z,97607.44
2023-08-18T23:43:02.209Z,97609.06
2023-08-18T23:45:30.187Z,97605.47
2023-08-18T23:47:59.558Z,97600.25
2023-08-18T23:50:27.560Z,97601.41
2023-08-18T23:52:57.957Z,97600.16
2023-08-18T23:55:26.306Z,97604.09
2023-08-18T23:57:55.074Z,97610.50
